Mount Pleasant, Washington
Current Conditions -  °F | °C
As of 8:01 PM on Wednesday 17 Dec 2014 (Local Time) from KCLM Reporting Station
Overcast Overcast  
Wind Chill: 44°   Ceiling: 1100
Heat Index: 44°   Visibility: 10mi
Dew Point: 42°   Wind: 3mph
Humidity: 93%   Direction: 240°WSW
Pressure: 29.89"   Gusts: NA
Location:  48.0203°N, 123.478°W
Report Text: KCLM 180401Z AUTO 24003KT 10SM BKN011 BKN045 OVC110 07/06 A2989 RMK AO2 T00670056 $
Loading
Personal Weather Stations






























Interactive Weather Map New forecast layout! Learn more

10-Day Weather Forecast

Advertisements
Track Severe Weather on mobile